• Join FlightAware (Why Join?)
  • Login
  • US Flag 
08:43AM EDT


 

Airport Tracker/Info


-or-


 

Live Flight TrackerFlight Track Log ✈ AWE3827 ✈ 17-Apr-2013 ✈ KCLT - KBNA

Flight Track Log - Related Links

Times and Time Zones

All times are in EDT time to prevent confusion due to time zone crossing. See the AWE3827 flight status page for this flight to view local times or setup timezone preferences in your user account.

Time Position Orientation Groundspeed Altitude Reporting Facility
EDT Latitude Longitude Course Direction KTS MPH feet Rate Location/Type
08:21AM 35.1908 -80.9356 259° West 162 186 1,600  Level Atlanta Center
08:22AM 35.1794 -80.9319 165° South 162 186 2,000 1,320 Climbing FAA TRACON SMA TRACON (SMA)
08:22AM 35.1631 -80.9306 176° South 198 228 2,400 1,920 Climbing FAA TRACON SMA TRACON (SMA)
08:22AM 35.1431 -80.9358 192° South 208 239 3,300 2,400 Climbing FAA TRACON SMA TRACON (SMA)
08:23AM 35.1256 -80.9472 208° Southwest 216 249 4,000 1,800 Climbing FAA TRACON SMA TRACON (SMA)
08:23AM 35.1078 -80.9586 208° Southwest 239 275 4,500 1,500 Climbing FAA TRACON SMA TRACON (SMA)
08:23AM 35.0919 -80.9853 234° Southwest 267 307 5,000 1,800 Climbing FAA TRACON SMA TRACON (SMA)
08:24AM 35.0911 -81.0133 268° West 272 313 5,700 2,280 Climbing FAA TRACON SMA TRACON (SMA)
08:24AM 35.0917 -81.0419 271° West 282 325 6,500 2,460 Climbing FAA TRACON SMA TRACON (SMA)
08:24AM 35.0919 -81.0789 271° West 287 330 7,300 2,100 Climbing FAA TRACON SMA TRACON (SMA)
08:25AM 35.1829 -81.4010 239° Southwest  Level FlightAware Approximate
08:25AM 35.0950 -81.1089 277° West 287 330 7,900  Level FAA TRACON SMA TRACON (SMA)
08:25AM 35.1031 -81.1367 290° West 284 327 8,000 120 Climbing FAA TRACON SMA TRACON (SMA)
08:25AM 35.1144 -81.1708 292° West 275 316 8,000 120 Level FAA TRACON SMA TRACON (SMA)
08:26AM 35.1334 -81.5401 270° West  Level FlightAware Approximate
08:26AM 35.1242 -81.1981 294° West 283 326 8,100  Level FAA TRACON SMA TRACON (SMA)
08:26AM 35.1308 -81.2275 285° West 291 335 8,700 2,820 Climbing FAA TRACON SMA TRACON (SMA)
08:26AM 35.1336 -81.2653 275° West 288 331 10,000 3,300 Climbing FAA TRACON SMA TRACON (SMA)
08:27AM 35.1258 -81.6953 259° West  Level FlightAware Approximate
08:27AM 35.1356 -81.2950 275° West 283 326 10,900  Level FAA TRACON SMA TRACON (SMA)
08:27AM 35.1375 -81.3250 275° West 288 331 11,300 1,320 Climbing FAA TRACON SMA TRACON (SMA)
08:27AM 35.1400 -81.3647 274° West 300 345 11,800 1,320 Climbing FAA TRACON SMA TRACON (SMA)
08:28AM 35.1422 -81.3992 275° West 320 368 12,200 1,320 Climbing FAA TRACON SMA TRACON (SMA)
08:28AM 35.1444 -81.4339 274° West 334 384 12,700 1,500 Climbing FAA TRACON SMA TRACON (SMA)
08:28AM 35.1467 -81.4689 274° West 337 388 13,200 1,800 Climbing FAA TRACON SMA TRACON (SMA)
08:29AM 35.1475 -81.5131 271° West 337 388 13,900 1,740 Climbing FAA TRACON SMA TRACON (SMA)
08:29AM 35.1447 -81.5486 265° West 346 398 14,400 1,620 Climbing FAA TRACON SMA TRACON (SMA)
08:29AM 35.1411 -81.5936 264° West 347 399 15,000 1,620 Climbing FAA TRACON SMA TRACON (SMA)
08:30AM 35.1383 -81.6294 265° West 345 397 15,500 1,500 Climbing FAA TRACON SMA TRACON (SMA)
08:30AM 35.1364 -81.6658 266° West 348 400 16,000 1,920 Climbing FAA TRACON SMA TRACON (SMA)
08:30AM 35.1331 -81.7111 265° West 348 400 16,800 1,800 Climbing FAA TRACON SMA TRACON (SMA)
08:31AM 35.1294 -81.7469 263° West 346 398 17,200 1,200 Climbing FAA TRACON SMA TRACON (SMA)
08:31AM 35.1264 -81.7828 264° West 347 399 17,600 360 Climbing FAA TRACON SMA TRACON (SMA)
08:32AM 35.1264 -81.7828 121° Southeast 347 399 17,600 1,080 Level FAA TRACON SMA TRACON (SMA)
08:33AM 35.1314 -81.9867 272° West 352 405 19,400 1,560 Climbing Atlanta Center
08:34AM 35.1769 -82.0922 298° West 349 402 20,800 1,200 Climbing Atlanta Center
08:35AM 35.2225 -82.2006 297° West 354 407 21,900 900 Climbing Atlanta Center
08:36AM 35.2681 -82.3114 297° West 359 413 22,700 900 Climbing Atlanta Center
08:37AM 35.3133 -82.4225 297° West 364 419 23,700 1,020 Climbing Atlanta Center
08:38AM 35.3542 -82.5236 296° West 364 419 24,800 1,140 Climbing Atlanta Center
08:39AM 35.4014 -82.6400 296° West 357 411 26,000 600 Climbing Atlanta Center
08:40AM 35.4425 -82.7514 294° West 362 417 26,000  Level Atlanta Center
08:41AM 35.4539 -82.8658 277° West 362 417 26,000  Level Atlanta Center
08:42AM 35.4697 -83.0033 278° West 379 436 26,000  Level Atlanta Center
08:43AM 35.4833 -83.1283 278° West 379 436 26,000  Level Atlanta Center
08:44AM 35.4967 -83.2428 278° West 379 436 26,000  Level Atlanta Center
08:45AM 35.5119 -83.3703 278° West 379 436 26,000  Level Atlanta Center
08:46AM 35.5231 -83.5003 276° West 385 443 26,000  Level Atlanta Center
08:47AM 35.5339 -83.6203 276° West 385 443 26,000  Level Atlanta Center
08:48AM 35.5511 -83.7453 280° West 379 436 26,000 -180 Level Atlanta Center
08:49AM 35.5972 -83.8547 297° West 357 411 25,700 -660 Descending Atlanta Center
08:50AM 35.6411 -83.9647 296° West 362 417 24,700 -900 Descending Atlanta Center
08:51AM 35.6472 -84.0925 273° West 362 417 24,000 -360 Descending Atlanta Center
08:52AM 35.6514 -84.2150 272° West 367 422 24,000 -360 Level Atlanta Center
08:53AM 35.6553 -84.3428 272° West 367 422 23,300 -900 Descending Atlanta Center
08:54AM 35.6611 -84.4758 273° West 362 417 22,200 -1,080 Descending Atlanta Center
08:55AM 35.6650 -84.5986 272° West 362 417 21,200 -1,020 Descending Atlanta Center
08:56AM 35.6706 -84.7161 273° West 362 417 20,200 -600 Descending Atlanta Center
08:57AM 35.6719 -84.8336 271° West 357 411 20,000 -60 Descending Atlanta Center
08:59AM 35.6786 -85.1128 272° West 347 399 20,000  Level Memphis Center
09:00AM 35.6769 -85.2253 269° West 347 399 20,000  Level Memphis Center
09:01AM 35.6567 -85.3389 258° West 347 399 20,000  Level Memphis Center
09:02AM 35.6364 -85.4553 258° West 347 399 20,000  Level Memphis Center
09:03AM 35.6156 -85.5661 257° West 347 399 20,000 -660 Level Memphis Center
09:04AM 35.5947 -85.6772 257° West 342 394 18,700 -1,440 Descending Memphis Center
09:05AM 35.5719 -85.7883 256° West 342 394 17,200 -1,740 Descending Memphis Center
09:06AM 35.5589 -85.8911 261° West 337 388 15,300 1,380 Descending Memphis Center
09:07AM 35.6017 -85.9781 301° West 295 339 20,000 2,340 Climbing Memphis Center
09:08AM 35.6258 -86.0739 287° West 295 339 20,000 -5,460 Level Memphis Center
09:09AM 35.6822 -86.1375 318° Northwest 271 312 9,100 -6,240 Descending Memphis Center
09:10AM 35.7322 -86.1961 316° Northwest 271 312 7,600 -1,560 Descending Memphis Center
09:11AM 35.7886 -86.2600 317° Northwest 271 312 6,000 -840 Descending Memphis Center
09:12AM 35.8406 -86.3214 316° Northwest 271 312 6,000  Level Memphis Center
09:13AM 35.8947 -86.3853 316° Northwest 271 312 6,000  Level Memphis Center
09:14AM 35.9467 -86.4469 316° Northwest 265 305 6,000  Level Memphis Center
09:15AM 36.0008 -86.5111 316° Northwest 265 305 6,000 -120 Level Memphis Center
09:16AM 36.0569 -86.5725 319° Northwest 255 293 5,800 -720 Descending Memphis Center
09:17AM 36.1211 -86.5594 North 221 254 4,600 -1,200 Descending Memphis Center